Pine Grove, Pennsylvania
Current Conditions -  °F | °C
As of 2:38 PM on Saturday 25 Oct 2014 (Local Time) from KMUI Reporting Station
Clear Clear  
Wind Chill: 68°   Ceiling: Unl
Heat Index: 68°   Visibility: 10mi
Dew Point: 45°   Wind: 16mph
Humidity: 43%   Direction: 210°SSW
Pressure: 29.75"   Gusts: 22mph
Location:  40.55°N, 76.38°W
Report Text: KMUI 251838Z AUTO 21014G19KT 10SM CLR 20/07 A2975 RMK AO2 WSHFT 25
Loading
Personal Weather Stations






























Interactive Weather Map
Tropical Storm Tracking
New forecast layout! Learn more

10-Day Weather Forecast

Advertisements
Track Severe Weather on mobile